TimeCST,TemperatureF,Dew PointF,Humidity,Sea Level PressureIn,VisibilityMPH,Wind Direction,Wind SpeedMPH,Gust SpeedMPH,PrecipitationIn,Events,Conditions,WindDirDegrees,DateUTC
12:53 AM,10.0,1.9,70,30.61,10.0,SSE,4.6,-,N/A,,Clear,160,2013-12-12 06:53:00
1:53 AM,10.9,3.0,70,30.58,10.0,South,8.1,-,N/A,,Clear,190,2013-12-12 07:53:00
2:53 AM,12.0,3.9,70,30.56,10.0,South,6.9,-,N/A,,Clear,180,2013-12-12 08:53:00
3:53 AM,14.0,5.0,67,30.54,10.0,SSW,10.4,-,N/A,,Clear,200,2013-12-12 09:53:00
4:53 AM,12.9,3.9,67,30.53,10.0,South,4.6,-,N/A,,Clear,190,2013-12-12 10:53:00
5:53 AM,14.0,5.0,67,30.51,10.0,South,5.8,-,N/A,,Clear,180,2013-12-12 11:53:00
6:53 AM,15.1,6.1,68,30.51,10.0,SSW,9.2,-,N/A,,Clear,200,2013-12-12 12:53:00
7:53 AM,17.1,7.0,65,30.50,10.0,SSW,9.2,-,N/A,,Clear,200,2013-12-12 13:53:00
8:53 AM,21.9,10.0,60,30.50,10.0,SSW,12.7,-,N/A,,Clear,200,2013-12-12 14:53:00
9:53 AM,28.9,12.0,49,30.49,10.0,SW,12.7,-,N/A,,Clear,220,2013-12-12 15:53:00
10:53 AM,35.1,14.0,42,30.48,10.0,SW,13.8,-,N/A,,Clear,230,2013-12-12 16:53:00
11:53 AM,39.9,16.0,38,30.42,10.0,SW,15.0,-,N/A,,Clear,220,2013-12-12 17:53:00
12:53 PM,44.1,17.1,34,30.38,10.0,SSW,17.3,-,N/A,,Clear,210,2013-12-12 18:53:00
1:53 PM,46.0,17.1,31,30.35,10.0,SW,16.1,24.2,N/A,,Clear,230,2013-12-12 19:53:00
2:53 PM,46.9,18.0,32,30.32,10.0,SSW,15.0,-,N/A,,Clear,210,2013-12-12 20:53:00
3:53 PM,46.0,18.0,33,30.29,10.0,SSW,13.8,-,N/A,,Clear,200,2013-12-12 21:53:00
4:53 PM,41.0,18.0,40,30.28,10.0,SSW,5.8,-,N/A,,Clear,200,2013-12-12 22:53:00
5:53 PM,35.1,18.0,50,30.28,10.0,South,6.9,-,N/A,,Clear,180,2013-12-12 23:53:00
6:53 PM,32.0,17.1,54,30.26,10.0,SSE,6.9,-,N/A,,Clear,160,2013-12-13 00:53:00
7:53 PM,36.0,17.1,46,30.25,10.0,South,11.5,-,N/A,,Clear,190,2013-12-13 01:53:00
8:53 PM,34.0,18.0,52,30.22,10.0,South,12.7,-,N/A,,Clear,190,2013-12-13 02:53:00
9:53 PM,33.1,19.0,56,30.20,10.0,South,10.4,-,N/A,,Clear,180,2013-12-13 03:53:00
10:53 PM,30.9,21.0,67,30.18,10.0,South,10.4,-,N/A,,Clear,180,2013-12-13 04:53:00
11:53 PM,30.0,21.9,72,30.16,10.0,South,12.7,-,N/A,,Clear,190,2013-12-13 05:53:00